Terminal Aerodrome Forecast
Issued by NWS Grand Forks, ND

Home | Current Version | Previous Version | Graphics & Text | Print | Product List | Glossary On
Versions: 1 2 3 4 5 6 7 8 9 10 11 12 13 14 15 16 17 18 19 20 21 22
137
FTUS43 KFGF 091138
TAFGFK
TAF
KGFK 091138Z 0912/1012 33011KT P6SM BKN060
     FM092000 36010KT P6SM BKN250
     FM100100 VRB06KT P6SM BKN050=

USA.gov is the U.S. government's official web portal to all federal, state and local government web resources and services.